createdAt,value
2022-11-22T00:00:27.778Z,98901.88
2022-11-22T00:02:58.437Z,98890.41
2022-11-22T00:05:29.230Z,98890.94
2022-11-22T00:07:59.928Z,98884.16
2022-11-22T00:10:30.658Z,98888.08
2022-11-22T00:13:01.611Z,98885.12
2022-11-22T00:15:32.310Z,98883.77
2022-11-22T00:18:03.080Z,98878.20
2022-11-22T00:20:34.442Z,98879.00
2022-11-22T00:23:05.192Z,98877.75
2022-11-22T00:25:35.954Z,98873.05
2022-11-22T00:28:06.979Z,98869.92
2022-11-22T00:30:37.653Z,98865.08
2022-11-22T00:33:08.357Z,98858.25
2022-11-22T00:35:39.024Z,98856.18
2022-11-22T00:38:09.787Z,98847.73
2022-11-22T00:40:40.409Z,98846.14
2022-11-22T00:43:10.985Z,98841.28
2022-11-22T00:45:43.198Z,98843.58
2022-11-22T00:48:13.892Z,98840.77
2022-11-22T00:50:44.485Z,98840.52
2022-11-22T00:53:15.173Z,98846.59
2022-11-22T00:55:45.786Z,98853.01
2022-11-22T00:58:16.870Z,98856.60
2022-11-22T01:00:49.990Z,98858.51
2022-11-22T01:03:24.205Z,98859.70
2022-11-22T01:05:54.828Z,98860.64
2022-11-22T01:08:25.885Z,98864.85
2022-11-22T01:10:59.796Z,98865.45
2022-11-22T01:13:31.507Z,98864.23
2022-11-22T01:16:04.578Z,98864.92
2022-11-22T01:18:35.875Z,98864.35
2022-11-22T01:21:07.053Z,98862.14
2022-11-22T01:23:38.371Z,98854.50
2022-11-22T01:26:11.143Z,98848.48
2022-11-22T01:28:41.838Z,98849.08
2022-11-22T01:31:12.892Z,98843.33
2022-11-22T01:33:43.569Z,98835.08
2022-11-22T01:36:14.285Z,98831.40
2022-11-22T01:38:44.919Z,98829.27
2022-11-22T01:41:15.708Z,98827.77
2022-11-22T01:43:46.309Z,98823.95
2022-11-22T01:46:27.939Z,98825.71
2022-11-22T01:49:03.364Z,98826.86
2022-11-22T01:51:39.596Z,98828.27
2022-11-22T01:54:13.775Z,98828.89
2022-11-22T01:56:48.691Z,98832.47
2022-11-22T01:59:26.395Z,98830.21
2022-11-22T02:01:58.012Z,98830.19
2022-11-22T02:04:33.706Z,98825.52
2022-11-22T02:07:09.155Z,98829.20
2022-11-22T02:09:41.819Z,98828.55
2022-11-22T02:12:13.271Z,98828.21
2022-11-22T02:14:44.404Z,98823.86
2022-11-22T02:17:15.108Z,98825.35
2022-11-22T02:19:47.677Z,98818.33
2022-11-22T02:22:30.108Z,98812.38
2022-11-22T02:25:13.054Z,98814.36
2022-11-22T02:27:44.262Z,98810.31
2022-11-22T02:30:15.467Z,98805.27
2022-11-22T02:32:46.774Z,98810.05
2022-11-22T02:35:22.670Z,98808.77
2022-11-22T02:37:57.478Z,98809.04
2022-11-22T02:40:30.143Z,98806.90
2022-11-22T02:43:04.268Z,98800.27
2022-11-22T02:45:35.041Z,98801.55
2022-11-22T02:48:11.472Z,98794.64
2022-11-22T02:50:42.716Z,98797.46
2022-11-22T02:53:14.375Z,98797.48
2022-11-22T02:55:45.102Z,98794.05
2022-11-22T02:58:15.679Z,98787.55
2022-11-22T03:00:46.423Z,98786.92
2022-11-22T03:03:17.402Z,98780.02
2022-11-22T03:05:48.077Z,98780.50
2022-11-22T03:08:18.975Z,98778.92
2022-11-22T03:10:49.763Z,98782.48
2022-11-22T03:13:20.391Z,98787.98
2022-11-22T03:15:51.303Z,98792.25
2022-11-22T03:18:21.922Z,98793.69
2022-11-22T03:20:52.570Z,98793.91
2022-11-22T03:23:23.321Z,98793.92
2022-11-22T03:25:54.145Z,98795.08
2022-11-22T03:28:26.880Z,98795.20
2022-11-22T03:30:58.742Z,98795.89
2022-11-22T03:33:29.434Z,98798.45
2022-11-22T03:36:00.566Z,98800.58
2022-11-22T03:38:31.366Z,98795.34
2022-11-22T03:41:02.082Z,98785.79
2022-11-22T03:43:32.723Z,98782.55
2022-11-22T03:46:03.424Z,98784.30
2022-11-22T03:48:34.580Z,98780.36
2022-11-22T03:51:09.355Z,98775.44
2022-11-22T03:53:40.043Z,98770.83
2022-11-22T03:56:10.890Z,98770.16
2022-11-22T03:58:41.538Z,98763.55
2022-11-22T04:01:16.575Z,98762.26
2022-11-22T04:03:48.034Z,98766.11
2022-11-22T04:06:18.934Z,98767.36
2022-11-22T04:08:49.885Z,98763.60
2022-11-22T04:11:20.606Z,98758.48
2022-11-22T04:14:09.059Z,98758.07
2022-11-22T04:16:40.117Z,98760.14
2022-11-22T04:19:11.191Z,98748.84
2022-11-22T04:21:41.972Z,98752.84
2022-11-22T04:24:27.584Z,98748.12
2022-11-22T04:26:59.268Z,98741.59
2022-11-22T04:29:30.187Z,98740.16
2022-11-22T04:32:18.908Z,98735.96
2022-11-22T04:34:49.590Z,98732.42
2022-11-22T04:37:20.267Z,98732.98
2022-11-22T04:39:50.929Z,98731.23
2022-11-22T04:42:39.464Z,98725.37
2022-11-22T04:45:12.478Z,98731.68
2022-11-22T04:48:01.647Z,98728.70
2022-11-22T04:50:51.123Z,98735.39
2022-11-22T04:53:21.815Z,98736.25
2022-11-22T04:55:52.750Z,98732.13
2022-11-22T04:58:23.946Z,98724.48
2022-11-22T05:00:54.846Z,98721.35
2022-11-22T05:03:25.719Z,98721.48
2022-11-22T05:05:56.578Z,98718.80
2022-11-22T05:08:27.252Z,98711.75
2022-11-22T05:10:57.896Z,98704.69
2022-11-22T05:13:31.037Z,98704.23
2022-11-22T05:16:00.652Z,98703.33
2022-11-22T05:18:32.331Z,98708.37
2022-11-22T05:21:07.232Z,98708.37
2022-11-22T05:23:56.142Z,98710.45
2022-11-22T05:26:29.128Z,98712.39
2022-11-22T05:29:00.765Z,98710.20
2022-11-22T05:31:33.690Z,98710.31
2022-11-22T05:34:05.279Z,98717.15
2022-11-22T05:36:37.259Z,98722.47
2022-11-22T05:39:08.054Z,98728.83
2022-11-22T05:41:38.719Z,98726.30
2022-11-22T05:44:09.852Z,98731.27
2022-11-22T05:46:40.535Z,98734.96
2022-11-22T05:49:11.301Z,98738.66
2022-11-22T05:51:41.974Z,98732.55
2022-11-22T05:54:13.178Z,98727.86
2022-11-22T05:56:43.808Z,98727.60
2022-11-22T05:59:14.628Z,98727.02
2022-11-22T06:01:45.319Z,98730.64
2022-11-22T06:04:16.126Z,98736.94
2022-11-22T06:06:49.126Z,98736.27
2022-11-22T06:09:19.829Z,98738.81
2022-11-22T06:11:50.587Z,98739.08
2022-11-22T06:14:21.375Z,98744.43
2022-11-22T06:16:53.224Z,98741.56
2022-11-22T06:19:23.939Z,98750.28
2022-11-22T06:21:54.523Z,98756.50
2022-11-22T06:24:25.213Z,98763.17
2022-11-22T06:26:55.847Z,98766.96
2022-11-22T06:29:26.721Z,98767.30
2022-11-22T06:32:03.213Z,98770.74
2022-11-22T06:34:34.524Z,98770.45
2022-11-22T06:37:05.330Z,98766.65
2022-11-22T06:39:36.460Z,98769.59
2022-11-22T06:42:07.550Z,98773.34
2022-11-22T06:44:38.186Z,98773.07
2022-11-22T06:47:10.251Z,98774.11
2022-11-22T06:49:40.870Z,98778.95
2022-11-22T06:52:11.518Z,98786.98
2022-11-22T06:54:42.241Z,98787.52
2022-11-22T06:57:15.816Z,98787.36
2022-11-22T06:59:46.413Z,98784.17
2022-11-22T07:02:17.085Z,98784.59
2022-11-22T07:05:09.819Z,98785.70
2022-11-22T07:07:38.584Z,98782.26
2022-11-22T07:10:10.828Z,98780.77
2022-11-22T07:12:41.704Z,98783.25
2022-11-22T07:15:13.734Z,98783.03
2022-11-22T07:17:44.628Z,98784.55
2022-11-22T07:20:15.859Z,98793.00
2022-11-22T07:22:48.260Z,98799.73
2022-11-22T07:25:19.296Z,98797.28
2022-11-22T07:27:50.017Z,98798.03
2022-11-22T07:30:20.884Z,98794.59
2022-11-22T07:32:51.752Z,98797.14
2022-11-22T07:35:22.443Z,98788.27
2022-11-22T07:37:53.197Z,98793.23
2022-11-22T07:40:23.921Z,98802.59
2022-11-22T07:42:58.420Z,98807.97
2022-11-22T07:45:29.575Z,98815.61
2022-11-22T07:48:02.223Z,98819.92
2022-11-22T07:50:32.883Z,98829.45
2022-11-22T07:53:03.937Z,98818.91
2022-11-22T07:55:34.706Z,98819.86
2022-11-22T07:58:05.806Z,98817.91
2022-11-22T08:00:36.789Z,98822.61
2022-11-22T08:03:09.563Z,98828.09
2022-11-22T08:05:40.229Z,98831.22
2022-11-22T08:08:10.970Z,98829.59
2022-11-22T08:10:41.562Z,98823.77
2022-11-22T08:13:12.283Z,98823.16
2022-11-22T08:15:43.025Z,98825.79
2022-11-22T08:18:13.813Z,98830.86
2022-11-22T08:20:44.618Z,98841.48
2022-11-22T08:23:15.335Z,98843.95
2022-11-22T08:25:46.004Z,98841.09
2022-11-22T08:28:16.740Z,98838.73
2022-11-22T08:30:47.546Z,98841.73
2022-11-22T08:33:18.326Z,98844.30
2022-11-22T08:35:52.081Z,98842.32
2022-11-22T08:38:22.849Z,98847.39
2022-11-22T08:40:53.499Z,98852.48
2022-11-22T08:43:24.386Z,98846.63
2022-11-22T08:45:58.313Z,98847.17
2022-11-22T08:48:30.078Z,98848.79
2022-11-22T08:51:02.559Z,98848.73
2022-11-22T08:53:35.057Z,98852.31
2022-11-22T08:56:09.647Z,98858.55
2022-11-22T08:58:41.005Z,98867.21
2022-11-22T09:01:14.141Z,98866.69
2022-11-22T09:03:45.707Z,98863.62
2022-11-22T09:09:38.600Z,98863.92
2022-11-22T09:12:00.463Z,98864.16
2022-11-22T09:14:31.117Z,98863.63
2022-11-22T09:17:01.803Z,98860.92
2022-11-22T09:19:32.925Z,98869.35
2022-11-22T09:22:03.819Z,98875.57
2022-11-22T09:24:34.532Z,98875.90
2022-11-22T09:27:05.500Z,98874.91
2022-11-22T09:29:37.391Z,98885.89
2022-11-22T09:32:12.264Z,98883.94
2022-11-22T09:34:43.005Z,98892.84
2022-11-22T09:37:17.278Z,98888.20
2022-11-22T09:39:48.721Z,98889.14
2022-11-22T09:42:38.007Z,98893.36
2022-11-22T09:45:35.699Z,98901.95
2022-11-22T09:48:21.765Z,98899.13
2022-11-22T09:51:01.841Z,98899.77
2022-11-22T09:53:39.173Z,98901.34
2022-11-22T09:56:14.559Z,98894.71
2022-11-22T09:58:48.808Z,98886.98
2022-11-22T10:01:24.157Z,98887.55
2022-11-22T10:04:01.538Z,98890.42
2022-11-22T10:06:35.784Z,98890.35
2022-11-22T10:09:22.064Z,98892.59
2022-11-22T10:12:00.899Z,98893.70
2022-11-22T10:14:42.720Z,98907.74
2022-11-22T10:17:29.413Z,98902.77
2022-11-22T10:20:08.622Z,98898.06
2022-11-22T10:22:39.614Z,98898.56
2022-11-22T10:25:18.219Z,98904.05
2022-11-22T10:27:57.618Z,98908.39
2022-11-22T10:30:34.771Z,98919.95
2022-11-22T10:33:14.250Z,98925.00
2022-11-22T10:36:17.642Z,98929.38
2022-11-22T10:39:18.645Z,98927.42
2022-11-22T10:42:08.797Z,98930.48
2022-11-22T10:44:50.370Z,98927.46
2022-11-22T10:47:38.864Z,98921.83
2022-11-22T10:50:18.270Z,98913.23
2022-11-22T10:52:59.118Z,98909.57
2022-11-22T10:55:42.704Z,98912.19
2022-11-22T10:58:23.604Z,98906.98
2022-11-22T11:01:04.789Z,98902.70
2022-11-22T11:03:38.566Z,98909.56
2022-11-22T11:06:24.369Z,98917.27
2022-11-22T11:09:54.859Z,98921.23
2022-11-22T11:11:55.745Z,98921.61
2022-11-22T11:14:33.139Z,98926.79
2022-11-22T11:17:06.423Z,98929.24
2022-11-22T11:19:38.808Z,98928.99
2022-11-22T11:22:30.421Z,98925.54
2022-11-22T11:25:40.380Z,98916.60
2022-11-22T11:28:17.544Z,98911.41
2022-11-22T11:30:51.535Z,98909.98
2022-11-22T11:33:27.045Z,98904.81
2022-11-22T11:36:03.624Z,98901.08
2022-11-22T11:38:38.373Z,98905.64
2022-11-22T11:41:24.043Z,98899.40
2022-11-22T11:43:55.862Z,98911.98
2022-11-22T11:46:32.137Z,98904.64
2022-11-22T11:49:15.099Z,98894.55
2022-11-22T11:51:47.752Z,98898.59
2022-11-22T11:54:21.906Z,98899.16
2022-11-22T11:56:56.538Z,98894.41
2022-11-22T11:59:43.673Z,98899.71
2022-11-22T12:02:17.974Z,98900.04
2022-11-22T12:04:53.299Z,98900.11
2022-11-22T12:07:27.130Z,98897.23
2022-11-22T12:09:58.686Z,98892.23
2022-11-22T12:12:44.781Z,98894.79
2022-11-22T12:15:23.814Z,98898.23
2022-11-22T12:17:56.109Z,98903.85
2022-11-22T12:20:38.315Z,98900.90
2022-11-22T12:23:19.033Z,98896.60
2022-11-22T12:25:52.289Z,98899.23
2022-11-22T12:28:24.820Z,98902.48
2022-11-22T12:31:02.819Z,98907.83
2022-11-22T12:33:39.103Z,98905.86
2022-11-22T12:36:16.391Z,98909.25
2022-11-22T12:38:48.948Z,98901.93
2022-11-22T12:41:23.142Z,98901.62
2022-11-22T12:43:56.952Z,98900.45
2022-11-22T12:46:30.664Z,98907.73
2022-11-22T12:49:05.903Z,98907.77
2022-11-22T12:51:42.527Z,98906.70
2022-11-22T12:54:17.555Z,98897.89
2022-11-22T12:56:53.146Z,98897.92
2022-11-22T12:59:35.219Z,98896.73
2022-11-22T13:02:17.383Z,98893.45
2022-11-22T13:04:53.824Z,98892.66
2022-11-22T13:07:38.223Z,98888.76
2022-11-22T13:10:29.949Z,98891.13
2022-11-22T13:13:03.869Z,98893.01
2022-11-22T13:15:37.687Z,98893.29
2022-11-22T13:18:15.941Z,98892.73
2022-11-22T13:20:57.218Z,98899.94
2022-11-22T13:23:45.888Z,98899.73
2022-11-22T13:26:24.590Z,98902.32
2022-11-22T13:28:56.053Z,98901.00
2022-11-22T13:31:26.864Z,98905.66
2022-11-22T13:34:02.387Z,98898.30
2022-11-22T13:36:42.144Z,98901.26
2022-11-22T13:39:25.970Z,98901.70
2022-11-22T13:42:06.265Z,98898.41
2022-11-22T13:44:52.857Z,98901.62
2022-11-22T13:47:41.970Z,98893.70
2022-11-22T13:50:57.727Z,98888.80
2022-11-22T13:53:31.433Z,98886.81
2022-11-22T13:56:40.305Z,98883.73
2022-11-22T13:59:18.315Z,98884.95
2022-11-22T14:02:22.291Z,98890.70
2022-11-22T14:04:57.509Z,98895.79
2022-11-22T14:07:37.621Z,98897.77
2022-11-22T14:10:27.982Z,98892.69
2022-11-22T14:13:16.141Z,98892.27
2022-11-22T14:16:08.079Z,98893.73
2022-11-22T14:18:53.895Z,98894.05
2022-11-22T14:21:46.381Z,98896.53
2022-11-22T14:24:31.298Z,98895.27
2022-11-22T14:27:17.467Z,98899.64
2022-11-22T14:30:14.171Z,98900.06
2022-11-22T14:33:02.111Z,98895.93
2022-11-22T14:35:40.393Z,98891.69
2022-11-22T14:38:41.042Z,98890.04
2022-11-22T14:41:45.971Z,98889.08
2022-11-22T14:44:25.969Z,98898.50
2022-11-22T14:47:04.040Z,98898.72
2022-11-22T14:49:45.934Z,98902.70
2022-11-22T14:52:23.955Z,98902.74
2022-11-22T14:55:06.061Z,98904.08
2022-11-22T14:57:38.122Z,98902.83
2022-11-22T15:00:19.324Z,98898.59
2022-11-22T15:03:28.689Z,98892.04
2022-11-22T15:09:13.164Z,98900.23
2022-11-22T15:09:53.952Z,98899.31
2022-11-22T15:13:06.620Z,98899.00
2022-11-22T15:57:27.998Z,98942.42
2022-11-22T15:59:59.864Z,98943.25
2022-11-22T16:02:32.401Z,98947.08
2022-11-22T16:06:03.488Z,98950.67
2022-11-22T16:07:58.380Z,98950.16
2022-11-22T16:10:37.287Z,98952.66
2022-11-22T16:13:28.367Z,98950.15
2022-11-22T16:16:18.622Z,98951.57
2022-11-22T16:18:50.825Z,98957.30
2022-11-22T16:21:30.261Z,98957.98
2022-11-22T16:24:19.203Z,98955.17
2022-11-22T16:27:11.335Z,98952.05
2022-11-22T16:29:54.626Z,98950.05
2022-11-22T16:32:26.156Z,98946.59
2022-11-22T16:35:21.775Z,98945.98
2022-11-22T16:37:51.589Z,98947.33
2022-11-22T16:40:22.549Z,98946.30
2022-11-22T16:42:53.598Z,98941.29
2022-11-22T16:45:24.965Z,98946.52
2022-11-22T16:48:16.540Z,98952.13
2022-11-22T16:50:47.337Z,98958.50
2022-11-22T16:53:18.563Z,98966.27
2022-11-22T16:55:50.194Z,98970.52
2022-11-22T16:58:23.475Z,98981.90
2022-11-22T17:00:55.023Z,98985.83
2022-11-22T17:03:29.670Z,98992.08
2022-11-22T17:06:00.470Z,98991.84
2022-11-22T17:08:31.235Z,98989.72
2022-11-22T17:11:01.843Z,98996.09
2022-11-22T17:13:32.558Z,99001.84
2022-11-22T17:16:03.193Z,99010.48
2022-11-22T17:18:33.858Z,99020.42
2022-11-22T17:21:05.926Z,99021.77
2022-11-22T17:23:39.353Z,99017.42
2022-11-22T17:26:12.482Z,99019.12
2022-11-22T17:28:43.249Z,99023.10
2022-11-22T17:31:15.656Z,99024.11
2022-11-22T17:33:50.023Z,99022.15
2022-11-22T17:36:29.418Z,99025.99
2022-11-22T17:39:01.263Z,99028.58
2022-11-22T17:41:32.165Z,99025.20
2022-11-22T17:44:03.726Z,99024.56
2022-11-22T17:46:38.212Z,99016.73
2022-11-22T17:49:14.155Z,99018.02
2022-11-22T17:51:47.609Z,99024.48
2022-11-22T17:54:18.331Z,99036.38
2022-11-22T17:56:49.174Z,99038.89
2022-11-22T17:59:19.879Z,99038.42
2022-11-22T18:01:50.558Z,99044.28
2022-11-22T18:04:21.314Z,99048.95
2022-11-22T18:06:52.185Z,99051.44
2022-11-22T18:09:22.808Z,99054.69
2022-11-22T18:11:53.511Z,99057.20
2022-11-22T18:14:24.481Z,99058.69
2022-11-22T18:16:55.474Z,99054.61
2022-11-22T18:19:26.114Z,99055.28
2022-11-22T18:21:56.803Z,99049.58
2022-11-22T18:24:27.400Z,99052.38
2022-11-22T18:26:58.177Z,99053.95
2022-11-22T18:29:42.210Z,99061.63
2022-11-22T18:32:13.788Z,99060.11
2022-11-22T18:34:44.494Z,99058.50
2022-11-22T18:37:15.075Z,99058.89
2022-11-22T18:39:45.834Z,99061.67
2022-11-22T18:42:17.843Z,99063.45
2022-11-22T18:44:48.530Z,99069.30
2022-11-22T18:47:19.219Z,99066.92
2022-11-22T18:49:49.912Z,99079.11
2022-11-22T18:52:23.000Z,99077.54
2022-11-22T18:54:52.205Z,99079.61
2022-11-22T18:57:23.066Z,99079.30
2022-11-22T18:59:53.784Z,99081.52
2022-11-22T19:02:26.056Z,99094.54
2022-11-22T19:04:57.230Z,99103.88
2022-11-22T19:07:27.937Z,99105.16
2022-11-22T19:09:59.226Z,99103.04
2022-11-22T19:12:30.135Z,99100.94
2022-11-22T19:15:00.974Z,99096.71
2022-11-22T19:17:31.599Z,99094.09
2022-11-22T19:20:02.430Z,99094.98
2022-11-22T19:22:33.236Z,99093.55
2022-11-22T19:25:03.804Z,99089.65
2022-11-22T19:27:34.428Z,99090.00
2022-11-22T19:30:05.917Z,99096.27
2022-11-22T19:32:36.658Z,99104.85
2022-11-22T19:35:09.016Z,99108.42
2022-11-22T19:37:39.670Z,99108.91
2022-11-22T19:40:12.629Z,99117.41
2022-11-22T19:42:42.277Z,99118.00
2022-11-22T19:45:13.489Z,99123.63
2022-11-22T19:47:44.880Z,99131.98
2022-11-22T19:50:15.534Z,99138.48
2022-11-22T19:52:46.198Z,99135.66
2022-11-22T19:55:16.943Z,99131.31
2022-11-22T19:57:47.641Z,99145.59
2022-11-22T20:00:19.766Z,99145.46
2022-11-22T20:02:50.482Z,99144.17
2022-11-22T20:05:21.433Z,99142.13
2022-11-22T20:07:52.129Z,99142.89
2022-11-22T20:10:22.902Z,99139.44
2022-11-22T20:12:53.708Z,99143.77
2022-11-22T20:15:24.542Z,99137.73
2022-11-22T20:17:56.495Z,99139.77
2022-11-22T20:20:27.128Z,99143.91
2022-11-22T20:22:58.096Z,99137.91
2022-11-22T20:25:28.723Z,99139.44
2022-11-22T20:27:59.508Z,99150.23
2022-11-22T20:30:30.195Z,99148.89
2022-11-22T20:33:00.876Z,99144.72
2022-11-22T20:35:31.532Z,99148.35
2022-11-22T20:38:02.790Z,99144.86
2022-11-22T20:40:33.520Z,99146.67
2022-11-22T20:43:04.142Z,99153.41
2022-11-22T20:45:34.889Z,99154.84
2022-11-22T20:48:06.069Z,99153.10
2022-11-22T20:50:38.315Z,99152.39
2022-11-22T20:53:08.924Z,99155.38
2022-11-22T20:55:41.004Z,99157.77
2022-11-22T20:58:11.594Z,99147.06
2022-11-22T21:00:42.418Z,99161.93
2022-11-22T21:03:13.276Z,99154.51
2022-11-22T21:05:45.691Z,99148.97
2022-11-22T21:08:16.470Z,99148.17
2022-11-22T21:10:47.496Z,99153.56
2022-11-22T21:13:18.097Z,99157.93
2022-11-22T21:15:48.805Z,99159.90
2022-11-22T21:18:25.600Z,99154.61
2022-11-22T21:21:01.901Z,99153.55
2022-11-22T21:23:33.279Z,99154.20
2022-11-22T21:26:04.751Z,99154.84
2022-11-22T21:28:38.821Z,99156.42
2022-11-22T21:31:10.118Z,99160.55
2022-11-22T21:33:40.872Z,99160.48
2022-11-22T21:36:12.721Z,99165.88
2022-11-22T21:38:43.326Z,99159.46
2022-11-22T21:41:38.776Z,99160.23
2022-11-22T21:44:07.964Z,99153.23
2022-11-22T21:46:38.658Z,99149.50
2022-11-22T21:49:09.652Z,99148.35
2022-11-22T21:51:40.239Z,99153.95
2022-11-22T21:54:11.016Z,99159.30
2022-11-22T21:56:41.621Z,99164.48
2022-11-22T21:59:13.997Z,99157.87
2022-11-22T22:01:45.070Z,99162.09
2022-11-22T22:04:16.489Z,99160.04
2022-11-22T22:06:48.345Z,99161.61
2022-11-22T22:09:19.084Z,99161.47
2022-11-22T22:11:49.785Z,99158.52
2022-11-22T22:14:20.495Z,99156.08
2022-11-22T22:16:51.149Z,99157.05
2022-11-22T22:19:22.067Z,99162.79
2022-11-22T22:21:52.764Z,99169.15
2022-11-22T22:24:23.322Z,99164.48
2022-11-22T22:26:54.038Z,99161.07
2022-11-22T22:29:24.657Z,99156.50
2022-11-22T22:31:55.295Z,99160.58
2022-11-22T22:34:25.954Z,99163.06
2022-11-22T22:36:59.230Z,99160.58
2022-11-22T22:39:30.167Z,99162.63
2022-11-22T22:42:01.109Z,99163.73
2022-11-22T22:44:32.734Z,99161.84
2022-11-22T22:47:03.501Z,99168.81
2022-11-22T22:49:34.590Z,99172.69
2022-11-22T22:52:06.257Z,99168.23
2022-11-22T22:54:36.971Z,99169.95
2022-11-22T22:57:07.835Z,99171.14
2022-11-22T22:59:38.606Z,99170.82
2022-11-22T23:02:09.211Z,99176.36
2022-11-22T23:04:40.610Z,99169.73
2022-11-22T23:07:11.264Z,99169.31
2022-11-22T23:09:41.923Z,99171.17
2022-11-22T23:12:12.576Z,99169.38
2022-11-22T23:14:43.413Z,99171.70
2022-11-22T23:17:14.134Z,99177.48
2022-11-22T23:19:44.978Z,99182.88
2022-11-22T23:22:15.655Z,99182.67
2022-11-22T23:24:46.395Z,99186.38
2022-11-22T23:27:17.105Z,99187.22
2022-11-22T23:29:47.670Z,99186.79
2022-11-22T23:32:18.406Z,99183.55
2022-11-22T23:34:49.095Z,99181.16
2022-11-22T23:37:19.802Z,99176.17
2022-11-22T23:39:51.432Z,99179.20
2022-11-22T23:42:22.000Z,99174.36
2022-11-22T23:44:52.995Z,99175.31
2022-11-22T23:47:23.635Z,99177.88
2022-11-22T23:49:54.192Z,99176.97
2022-11-22T23:52:24.825Z,99182.25
2022-11-22T23:54:55.574Z,99189.29
2022-11-22T23:57:26.715Z,99192.55
2022-11-22T23:59:57.299Z,99193.66
